Time;durP1;ratioP1;P1;durP2;ratioP2;P2;SDS_P1;SDS_P2;PMS_P1;PMS_P2;Temp;Humidity;BMP_temperature;BMP_pressure;BME280_temperature;BME280_humidity;BME280_pressure;Samples;Min_cycle;Max_cycle;Signal;HPM_P1;HPM_P2
2020/12/14 00:00:47;;;;;;;30.85;12.82;;;3.60;99.90;;;;;;5062557;28;20443;-63
2020/12/14 00:03:14;;;;;;;33.95;12.48;;;3.60;99.90;;;;;;5063581;28;20040;-64
2020/12/14 00:05:40;;;;;;;44.67;15.73;;;3.60;99.90;;;;;;5044069;28;20052;-63
2020/12/14 00:08:07;;;;;;;37.40;13.90;;;3.60;99.90;;;;;;5066353;28;20032;-63
2020/12/14 00:10:33;;;;;;;38.78;13.85;;;3.60;99.90;;;;;;5059967;28;20507;-63
2020/12/14 00:13:02;;;;;;;38.88;13.32;;;3.70;99.90;;;;;;5048083;28;20391;-64
2020/12/14 00:15:28;;;;;;;32.83;12.25;;;3.70;99.90;;;;;;5066935;28;20056;-63
2020/12/14 00:17:55;;;;;;;40.00;14.10;;;3.70;99.90;;;;;;5051690;28;20056;-63
2020/12/14 00:20:21;;;;;;;36.60;13.38;;;3.70;99.90;;;;;;5047985;28;20051;-63
2020/12/14 00:22:48;;;;;;;35.85;12.57;;;3.70;99.90;;;;;;5067493;28;20037;-63
2020/12/14 00:25:15;;;;;;;34.08;12.30;;;3.70;99.90;;;;;;5065621;28;20506;-63
2020/12/14 00:27:41;;;;;;;36.58;12.80;;;3.70;99.90;;;;;;5066836;28;20041;-63
2020/12/14 00:30:09;;;;;;;35.88;12.85;;;3.70;99.90;;;;;;5062824;28;20098;-63
2020/12/14 00:32:39;;;;;;;40.95;13.40;;;3.80;99.90;;;;;;5065866;28;20131;-63
2020/12/14 00:35:05;;;;;;;26.63;10.90;;;3.70;99.90;;;;;;5065541;28;20151;-63
2020/12/14 00:37:32;;;;;;;26.33;9.13;;;3.80;99.90;;;;;;5055631;28;20053;-63
2020/12/14 00:40:00;;;;;;;24.90;9.25;;;3.80;99.90;;;;;;5045027;28;20044;-63
2020/12/14 00:42:26;;;;;;;32.20;10.77;;;3.80;99.90;;;;;;5058482;28;20511;-64
2020/12/14 00:44:54;;;;;;;24.08;8.30;;;3.80;99.90;;;;;;5067455;28;20577;-63
2020/12/14 00:47:21;;;;;;;29.20;10.43;;;3.80;99.90;;;;;;5062193;28;20047;-63
2020/12/14 00:49:47;;;;;;;26.77;9.23;;;3.80;99.90;;;;;;5057355;28;20036;-64
2020/12/14 00:52:14;;;;;;;22.08;7.68;;;3.80;99.90;;;;;;5066860;28;20516;-63
2020/12/14 00:54:41;;;;;;;20.17;5.65;;;3.80;99.90;;;;;;5062638;28;20059;-64
2020/12/14 00:57:08;;;;;;;21.90;7.78;;;3.90;99.90;;;;;;5070342;28;20813;-64
2020/12/14 00:59:35;;;;;;;23.08;7.97;;;3.80;99.90;;;;;;5067866;28;20689;-64
2020/12/14 01:02:01;;;;;;;24.48;7.85;;;3.80;99.90;;;;;;5071542;28;20041;-63
2020/12/14 01:04:27;;;;;;;18.05;6.60;;;3.80;99.90;;;;;;5065765;28;20049;-63
2020/12/14 01:06:55;;;;;;;18.02;5.47;;;3.80;99.90;;;;;;5062390;28;20037;-63
2020/12/14 01:09:22;;;;;;;18.10;6.28;;;3.80;99.90;;;;;;5061099;28;20033;-63
2020/12/14 01:11:49;;;;;;;15.55;5.35;;;3.80;99.90;;;;;;5067242;28;20045;-63
2020/12/14 01:14:16;;;;;;;21.90;6.85;;;3.80;99.90;;;;;;5068767;28;20124;-63
2020/12/14 01:16:45;;;;;;;16.95;5.50;;;3.80;99.90;;;;;;5067147;28;20479;-63
2020/12/14 01:19:12;;;;;;;17.73;6.10;;;3.80;99.90;;;;;;5069962;28;20071;-63
2020/12/14 01:21:38;;;;;;;19.90;6.85;;;3.80;99.90;;;;;;5056053;28;20053;-63
2020/12/14 01:24:05;;;;;;;18.35;6.13;;;3.80;99.90;;;;;;5060376;28;20090;-64
2020/12/14 01:26:31;;;;;;;20.85;7.10;;;3.80;99.90;;;;;;5068640;28;20078;-63
2020/12/14 01:28:58;;;;;;;16.45;6.45;;;3.80;99.90;;;;;;5055639;28;20459;-63
2020/12/14 01:31:24;;;;;;;18.10;6.30;;;3.80;99.90;;;;;;5070112;28;20041;-63
2020/12/14 01:33:51;;;;;;;20.38;6.85;;;3.90;99.90;;;;;;5062810;28;20087;-63
2020/12/14 01:36:18;;;;;;;21.67;7.85;;;3.90;99.90;;;;;;5066618;28;20107;-63
2020/12/14 01:38:44;;;;;;;21.00;6.95;;;3.90;99.90;;;;;;5063165;28;20036;-63
2020/12/14 01:41:11;;;;;;;16.63;6.97;;;3.80;99.90;;;;;;5070791;28;20496;-63
2020/12/14 01:43:37;;;;;;;18.33;6.70;;;3.80;99.90;;;;;;5071983;28;20045;-63
2020/12/14 01:46:04;;;;;;;22.10;7.50;;;3.80;99.90;;;;;;5067676;28;20045;-63
2020/12/14 01:48:30;;;;;;;23.48;7.55;;;3.80;99.90;;;;;;5057945;28;20051;-63
2020/12/14 01:50:57;;;;;;;20.90;6.07;;;3.80;99.90;;;;;;5068505;28;20095;-63
2020/12/14 01:53:24;;;;;;;20.45;6.70;;;3.80;99.90;;;;;;5069658;28;20545;-63
2020/12/14 01:55:54;;;;;;;22.23;6.45;;;3.80;99.90;;;;;;5062336;28;20123;-63
2020/12/14 01:58:21;;;;;;;17.92;6.47;;;3.80;99.90;;;;;;5071235;28;20036;-63
2020/12/14 02:00:48;;;;;;;19.35;6.03;;;3.70;99.90;;;;;;5064935;28;20060;-63
2020/12/14 02:03:15;;;;;;;21.92;7.13;;;3.80;99.90;;;;;;5068799;28;20048;-63
2020/12/14 02:05:42;;;;;;;17.80;5.70;;;3.80;99.90;;;;;;5061371;28;20497;-63
2020/12/14 02:08:08;;;;;;;18.60;7.05;;;3.80;99.90;;;;;;5068578;28;20514;-63
2020/12/14 02:10:35;;;;;;;18.42;5.75;;;3.80;99.90;;;;;;5066860;28;20049;-63
2020/12/14 02:13:03;;;;;;;19.88;6.50;;;3.80;99.90;;;;;;5060799;28;20041;-63
2020/12/14 02:15:29;;;;;;;21.63;6.07;;;3.80;99.90;;;;;;5066027;28;20048;-63
2020/12/14 02:17:56;;;;;;;20.20;6.55;;;3.80;99.90;;;;;;5060979;28;20451;-63
2020/12/14 02:20:22;;;;;;;22.40;6.50;;;3.80;99.90;;;;;;5071241;28;20040;-63
2020/12/14 02:22:49;;;;;;;23.83;6.80;;;3.80;99.90;;;;;;5068455;28;20060;-63
2020/12/14 02:25:15;;;;;;;19.10;6.38;;;3.80;99.90;;;;;;5065503;28;20098;-63
2020/12/14 02:27:43;;;;;;;19.95;6.55;;;3.70;99.90;;;;;;5070786;28;20106;-63
2020/12/14 02:30:10;;;;;;;18.60;6.75;;;3.80;99.90;;;;;;5063142;28;20477;-63
2020/12/14 02:32:37;;;;;;;19.92;6.82;;;3.80;99.90;;;;;;5069971;28;20086;-63
2020/12/14 02:35:04;;;;;;;17.95;6.40;;;3.80;99.90;;;;;;5064443;28;20037;-63
2020/12/14 02:37:32;;;;;;;18.60;6.20;;;3.80;99.90;;;;;;5067000;28;20101;-63
2020/12/14 02:39:59;;;;;;;19.27;6.85;;;3.80;99.90;;;;;;5051593;28;20048;-63
2020/12/14 02:42:27;;;;;;;17.20;6.20;;;3.90;99.90;;;;;;5068170;28;20374;-63
2020/12/14 02:44:54;;;;;;;17.15;6.45;;;3.90;99.90;;;;;;5065758;28;20086;-63
2020/12/14 02:47:21;;;;;;;19.40;6.57;;;3.90;99.90;;;;;;5069391;28;20044;-63
2020/12/14 02:49:48;;;;;;;20.73;6.70;;;3.90;99.90;;;;;;5045629;28;20132;-63
2020/12/14 02:52:16;;;;;;;17.63;6.07;;;3.90;99.90;;;;;;5061708;28;20041;-63
2020/12/14 02:54:44;;;;;;;19.25;6.35;;;4.00;99.90;;;;;;5067101;28;20075;-63
2020/12/14 02:57:11;;;;;;;22.27;6.80;;;3.90;99.90;;;;;;5057906;28;20444;-63
2020/12/14 02:59:37;;;;;;;19.58;6.63;;;3.90;99.90;;;;;;5067434;28;20061;-63
2020/12/14 03:02:05;;;;;;;20.70;6.32;;;4.00;99.90;;;;;;5065886;28;20467;-64
2020/12/14 03:04:32;;;;;;;16.98;5.75;;;3.90;99.90;;;;;;5058449;28;20400;-63
2020/12/14 03:06:59;;;;;;;21.88;6.82;;;4.00;99.90;;;;;;5052891;28;20048;-63
2020/12/14 03:09:26;;;;;;;19.27;6.15;;;4.00;99.90;;;;;;5069894;28;20051;-63
2020/12/14 03:11:52;;;;;;;22.08;7.13;;;4.00;99.90;;;;;;5061198;28;20102;-63
2020/12/14 03:14:28;;;;;;;19.73;6.55;;;4.00;99.90;;;;;;5069250;28;20050;-64
2020/12/14 03:16:57;;;;;;;19.90;7.82;;;4.00;99.90;;;;;;5063348;28;20049;-63
2020/12/14 03:19:24;;;;;;;18.77;6.47;;;4.00;99.90;;;;;;5069492;28;20101;-64
2020/12/14 03:21:52;;;;;;;21.00;7.70;;;4.00;99.90;;;;;;5057981;28;20065;-63
2020/12/14 03:24:18;;;;;;;21.20;7.50;;;4.00;99.90;;;;;;5068871;28;20036;-64
2020/12/14 03:26:48;;;;;;;23.88;8.18;;;4.00;99.90;;;;;;5071023;28;20044;-63
2020/12/14 03:29:16;;;;;;;19.60;7.93;;;4.10;99.90;;;;;;5060973;28;20040;-63
2020/12/14 03:31:43;;;;;;;19.75;7.47;;;4.10;99.90;;;;;;5058975;28;20452;-63
2020/12/14 03:34:10;;;;;;;20.42;6.88;;;4.10;99.90;;;;;;5053854;28;20095;-63
2020/12/14 03:36:36;;;;;;;21.58;7.88;;;4.00;99.90;;;;;;5062737;28;20478;-63
2020/12/14 03:39:03;;;;;;;23.50;7.72;;;4.10;99.90;;;;;;5061281;28;20041;-63
2020/12/14 03:41:32;;;;;;;23.88;8.23;;;4.00;99.90;;;;;;5063913;28;20091;-63
2020/12/14 03:43:58;;;;;;;21.15;7.45;;;4.10;99.90;;;;;;5063861;28;20528;-63
2020/12/14 03:46:31;;;;;;;22.30;7.78;;;4.10;99.90;;;;;;5067211;28;20052;-64
2020/12/14 03:48:58;;;;;;;21.33;6.97;;;4.00;99.90;;;;;;5057423;28;20128;-63
2020/12/14 03:51:25;;;;;;;21.75;7.15;;;4.10;99.90;;;;;;5060857;28;20500;-64
2020/12/14 03:53:56;;;;;;;21.08;7.60;;;4.00;99.90;;;;;;5061129;28;20102;-63
2020/12/14 03:56:24;;;;;;;24.05;8.55;;;4.10;99.90;;;;;;5068462;28;20028;-63
2020/12/14 03:58:52;;;;;;;19.60;6.95;;;4.10;99.90;;;;;;5056589;28;20577;-63
2020/12/14 04:01:20;;;;;;;26.40;7.97;;;4.10;99.90;;;;;;5064260;28;20048;-63
2020/12/14 04:03:48;;;;;;;22.95;8.60;;;4.10;99.90;;;;;;5053006;28;20040;-63
2020/12/14 04:06:18;;;;;;;22.05;8.13;;;4.10;99.90;;;;;;5058776;28;20502;-63
2020/12/14 04:08:46;;;;;;;22.60;7.50;;;4.10;99.90;;;;;;5066854;28;20044;-63
2020/12/14 04:11:13;;;;;;;25.65;7.95;;;4.10;99.90;;;;;;5066081;28;20059;-63
2020/12/14 04:13:41;;;;;;;21.63;7.93;;;4.10;99.90;;;;;;5069710;28;20041;-63
2020/12/14 04:16:11;;;;;;;19.75;8.02;;;4.10;99.90;;;;;;5066003;28;20052;-63
2020/12/14 04:18:38;;;;;;;20.80;7.28;;;4.00;99.90;;;;;;5065704;28;20071;-63
2020/12/14 04:21:07;;;;;;;23.23;7.63;;;4.00;99.90;;;;;;5065577;28;20441;-63
2020/12/14 04:23:34;;;;;;;22.58;7.65;;;4.10;99.90;;;;;;5056257;28;20049;-63
2020/12/14 04:26:00;;;;;;;23.17;8.43;;;4.00;99.90;;;;;;5055759;28;20049;-63
2020/12/14 04:28:27;;;;;;;23.30;8.13;;;4.10;99.90;;;;;;5056587;28;20613;-63
2020/12/14 04:30:53;;;;;;;21.25;8.00;;;4.10;99.90;;;;;;5067163;28;20041;-63
2020/12/14 04:33:21;;;;;;;25.75;9.60;;;4.10;99.90;;;;;;5068314;28;20136;-63
2020/12/14 04:35:47;;;;;;;22.70;8.88;;;4.10;99.90;;;;;;5068674;28;20052;-63
2020/12/14 04:38:21;;;;;;;22.77;7.95;;;4.10;99.90;;;;;;5049434;28;20056;-63
2020/12/14 04:40:48;;;;;;;23.25;8.75;;;4.10;99.90;;;;;;5060070;28;20045;-63
2020/12/14 04:43:15;;;;;;;26.92;8.98;;;4.10;99.90;;;;;;5067830;28;20115;-63
2020/12/14 04:45:44;;;;;;;18.77;7.00;;;4.00;99.90;;;;;;5066782;28;20041;-63
2020/12/14 04:48:12;;;;;;;20.23;6.78;;;4.00;99.90;;;;;;5067103;28;20036;-63
2020/12/14 04:50:39;;;;;;;15.75;5.40;;;4.00;99.90;;;;;;5063951;28;20491;-63
2020/12/14 04:53:06;;;;;;;14.75;4.72;;;3.90;99.90;;;;;;5068446;28;20052;-63
2020/12/14 04:55:36;;;;;;;14.00;5.65;;;3.90;99.90;;;;;;5065448;28;20487;-64
2020/12/14 04:58:05;;;;;;;14.35;5.15;;;3.90;99.90;;;;;;5063235;28;20036;-63
2020/12/14 05:00:32;;;;;;;19.25;6.43;;;3.90;99.90;;;;;;5056758;28;20041;-63
2020/12/14 05:02:58;;;;;;;18.08;7.00;;;3.90;99.90;;;;;;5064452;28;20055;-63
2020/12/14 05:05:25;;;;;;;16.08;6.35;;;4.00;99.90;;;;;;5061432;28;20533;-63
2020/12/14 05:07:51;;;;;;;18.45;6.18;;;3.90;99.90;;;;;;5062775;28;20044;-63
2020/12/14 05:10:23;;;;;;;17.05;6.22;;;3.90;99.90;;;;;;5061046;28;20041;-63
2020/12/14 05:12:49;;;;;;;18.30;6.70;;;4.00;99.90;;;;;;5064110;28;20044;-63
2020/12/14 05:15:19;;;;;;;15.40;6.82;;;3.90;99.90;;;;;;5064993;28;20040;-63
2020/12/14 05:17:47;;;;;;;14.15;5.00;;;3.90;99.90;;;;;;5062801;28;20561;-63
2020/12/14 05:20:16;;;;;;;16.98;6.03;;;3.90;99.90;;;;;;5058730;28;20037;-63
2020/12/14 05:23:04;;;;;;;16.98;6.13;;;4.00;99.90;;;;;;5065925;28;20091;-63
2020/12/14 05:25:31;;;;;;;18.65;6.40;;;3.90;99.90;;;;;;5065854;28;20040;-63
2020/12/14 05:28:07;;;;;;;18.25;6.28;;;3.90;99.90;;;;;;5062558;28;20049;-63
2020/12/14 05:30:42;;;;;;;18.83;6.25;;;3.90;99.90;;;;;;5067478;28;20040;-63
2020/12/14 05:33:16;;;;;;;17.35;5.78;;;3.90;99.90;;;;;;5064678;28;20044;-63
2020/12/14 05:35:44;;;;;;;17.55;6.95;;;3.80;99.90;;;;;;5060751;28;20040;-63
2020/12/14 05:38:28;;;;;;;18.45;5.75;;;3.80;99.90;;;;;;5067296;28;20040;-63
2020/12/14 05:40:58;;;;;;;18.00;6.13;;;3.80;99.90;;;;;;5065876;28;20047;-63
2020/12/14 05:43:29;;;;;;;24.10;6.53;;;3.90;99.90;;;;;;5069021;28;20389;-63
2020/12/14 05:46:14;;;;;;;20.08;6.53;;;3.90;99.90;;;;;;5064479;28;20529;-63
2020/12/14 05:48:42;;;;;;;15.63;6.13;;;3.90;99.90;;;;;;5067771;28;20046;-63
2020/12/14 05:51:09;;;;;;;19.27;7.60;;;3.90;99.90;;;;;;5065841;28;20048;-63
2020/12/14 05:53:41;;;;;;;18.00;6.43;;;3.90;99.90;;;;;;5058271;28;20032;-63
2020/12/14 05:56:15;;;;;;;25.63;8.75;;;4.00;99.90;;;;;;5063111;28;20053;-63
2020/12/14 05:58:51;;;;;;;19.88;7.03;;;4.00;99.90;;;;;;5051887;28;20047;-63
2020/12/14 06:01:21;;;;;;;18.80;6.70;;;4.00;99.90;;;;;;5068498;28;20037;-63
2020/12/14 06:03:48;;;;;;;16.60;6.63;;;4.00;99.90;;;;;;5065490;28;20377;-63
2020/12/14 06:06:18;;;;;;;18.23;6.47;;;4.00;99.90;;;;;;5060965;28;20064;-64
2020/12/14 06:09:05;;;;;;;21.65;6.53;;;4.10;99.90;;;;;;5062845;28;20054;-63
2020/12/14 06:11:36;;;;;;;20.00;7.43;;;4.10;99.90;;;;;;5066090;28;20376;-63
2020/12/14 06:14:03;;;;;;;23.23;8.23;;;4.10;99.90;;;;;;5060130;28;20078;-63
2020/12/14 06:16:39;;;;;;;19.42;7.95;;;4.10;99.90;;;;;;5055103;28;20052;-63
2020/12/14 06:19:14;;;;;;;17.48;7.53;;;4.10;99.90;;;;;;5064417;28;20090;-63
2020/12/14 06:21:58;;;;;;;20.30;7.32;;;4.00;99.90;;;;;;5062383;28;20041;-63
2020/12/14 06:24:26;;;;;;;19.73;7.55;;;4.00;99.90;;;;;;5061153;28;20041;-63
2020/12/14 06:26:53;;;;;;;17.98;6.70;;;4.10;99.90;;;;;;5062778;28;20044;-63
2020/12/14 06:29:44;;;;;;;19.80;6.68;;;4.00;99.90;;;;;;5049137;28;20044;-63
2020/12/14 06:32:36;;;;;;;22.92;7.82;;;4.10;99.90;;;;;;5068744;28;20040;-63
2020/12/14 06:35:14;;;;;;;17.98;6.50;;;4.10;99.90;;;;;;5059155;28;20036;-63
2020/12/14 06:37:55;;;;;;;19.85;6.38;;;4.00;99.90;;;;;;5067478;28;20542;-64
2020/12/14 06:40:28;;;;;;;24.23;7.78;;;4.10;99.90;;;;;;5064824;28;20048;-63
2020/12/14 06:43:02;;;;;;;23.17;7.75;;;4.00;99.90;;;;;;5065631;28;20098;-63
2020/12/14 06:45:29;;;;;;;21.85;7.32;;;4.00;99.90;;;;;;5063287;28;20494;-63
2020/12/14 06:47:56;;;;;;;23.08;7.55;;;4.00;99.90;;;;;;5063364;28;20040;-63
2020/12/14 06:50:23;;;;;;;21.05;7.47;;;4.00;99.90;;;;;;5061427;28;20040;-63
2020/12/14 06:52:50;;;;;;;24.20;7.10;;;3.90;99.90;;;;;;5062296;28;20048;-63
2020/12/14 06:55:40;;;;;;;19.40;7.50;;;4.00;99.90;;;;;;5067111;28;20052;-63
2020/12/14 06:58:09;;;;;;;17.85;7.07;;;4.00;99.90;;;;;;5070392;28;20049;-63
2020/12/14 07:00:36;;;;;;;17.88;6.78;;;4.00;99.90;;;;;;5068564;28;20044;-63
2020/12/14 07:03:03;;;;;;;23.15;8.23;;;4.00;99.90;;;;;;5069935;28;20052;-63
2020/12/14 07:05:30;;;;;;;19.63;7.38;;;4.00;99.90;;;;;;5056050;28;20044;-63
2020/12/14 07:08:03;;;;;;;19.95;6.75;;;4.10;99.90;;;;;;5065181;28;20487;-63
2020/12/14 07:10:31;;;;;;;23.55;7.47;;;4.20;99.90;;;;;;5058121;28;20430;-63
2020/12/14 07:12:59;;;;;;;23.15;7.72;;;4.20;99.90;;;;;;5070134;28;20032;-63
2020/12/14 07:15:36;;;;;;;23.50;8.30;;;4.20;99.90;;;;;;5068456;28;20495;-63
2020/12/14 07:18:07;;;;;;;23.02;7.75;;;4.30;99.90;;;;;;5065772;28;20563;-63
2020/12/14 07:20:35;;;;;;;22.52;7.47;;;4.20;99.90;;;;;;5070895;28;20048;-63
2020/12/14 07:23:07;;;;;;;22.02;8.82;;;4.20;99.90;;;;;;5064063;28;20051;-63
2020/12/14 07:25:40;;;;;;;21.60;8.02;;;4.20;99.90;;;;;;5055801;28;20059;-63
2020/12/14 07:28:11;;;;;;;19.40;7.13;;;4.20;99.90;;;;;;5061732;28;20033;-63
2020/12/14 07:30:44;;;;;;;27.67;9.18;;;4.20;99.90;;;;;;5066601;28;20049;-62
2020/12/14 07:33:17;;;;;;;22.73;9.68;;;4.30;99.90;;;;;;5062480;28;20585;-62
2020/12/14 07:35:43;;;;;;;29.08;10.48;;;4.30;99.90;;;;;;5063712;28;20040;-62
2020/12/14 07:38:11;;;;;;;68.65;24.98;;;4.30;99.90;;;;;;5068287;28;20036;-62
2020/12/14 07:40:38;;;;;;;42.25;15.45;;;4.30;99.90;;;;;;5070125;28;20044;-62
2020/12/14 07:43:04;;;;;;;39.22;14.48;;;4.40;99.90;;;;;;5069179;28;20742;-62
2020/12/14 07:45:31;;;;;;;23.20;9.63;;;4.40;99.90;;;;;;5064910;28;20036;-63
2020/12/14 07:47:57;;;;;;;24.15;9.27;;;4.40;99.90;;;;;;5057589;28;20041;-62
2020/12/14 07:50:26;;;;;;;24.35;8.95;;;4.30;99.90;;;;;;5060917;28;20098;-63
2020/12/14 07:53:03;;;;;;;17.50;6.90;;;4.30;99.90;;;;;;5063076;28;20040;-63
2020/12/14 07:55:38;;;;;;;22.55;8.45;;;4.30;99.90;;;;;;5061018;28;20048;-63
2020/12/14 07:58:11;;;;;;;19.60;7.45;;;4.30;99.90;;;;;;5059531;28;20084;-63
2020/12/14 08:00:37;;;;;;;22.38;8.95;;;4.20;99.90;;;;;;5063337;28;20059;-63
2020/12/14 08:03:06;;;;;;;21.27;9.07;;;4.20;99.90;;;;;;5063700;28;20048;-63
2020/12/14 08:05:33;;;;;;;24.25;9.88;;;4.20;99.90;;;;;;5062791;28;21773;-63
2020/12/14 08:08:05;;;;;;;24.40;8.20;;;4.20;99.90;;;;;;5055078;28;20052;-63
2020/12/14 08:10:45;;;;;;;15.90;6.30;;;4.30;99.90;;;;;;5054188;28;20073;-63
2020/12/14 08:13:13;;;;;;;18.00;6.88;;;4.30;99.90;;;;;;5058417;28;20388;-63
2020/12/14 08:15:43;;;;;;;19.92;8.13;;;4.30;99.90;;;;;;5060904;28;20033;-63
2020/12/14 08:18:11;;;;;;;15.52;5.10;;;4.40;99.90;;;;;;5063542;28;20472;-63
2020/12/14 08:20:41;;;;;;;16.73;6.55;;;4.40;99.90;;;;;;5057112;28;20048;-63
2020/12/14 08:23:18;;;;;;;14.65;6.07;;;4.50;99.90;;;;;;5059465;28;20503;-63
2020/12/14 08:25:49;;;;;;;17.05;5.97;;;4.50;99.90;;;;;;5065121;28;20094;-62
2020/12/14 08:28:30;;;;;;;14.52;4.85;;;4.50;99.90;;;;;;5068950;28;20053;-63
2020/12/14 08:30:57;;;;;;;12.68;4.28;;;4.50;99.90;;;;;;5068037;28;20400;-63
2020/12/14 08:33:30;;;;;;;15.10;4.40;;;4.50;99.90;;;;;;5057360;28;20040;-63
2020/12/14 08:36:10;;;;;;;19.52;6.20;;;4.50;99.90;;;;;;5046259;28;20936;-63
2020/12/14 08:38:36;;;;;;;22.15;9.07;;;4.60;99.90;;;;;;5060538;28;20571;-63
2020/12/14 08:41:05;;;;;;;22.17;8.32;;;4.60;99.90;;;;;;5062181;28;20076;-63
2020/12/14 08:43:39;;;;;;;18.33;7.72;;;4.60;99.90;;;;;;5064085;28;20048;-63
2020/12/14 08:46:27;;;;;;;26.27;8.77;;;4.60;99.90;;;;;;5064426;28;20035;-63
2020/12/14 08:49:01;;;;;;;19.65;8.52;;;4.60;99.90;;;;;;5061722;28;20044;-64
2020/12/14 08:51:40;;;;;;;21.52;7.32;;;4.60;99.90;;;;;;5065687;28;20549;-63
2020/12/14 08:54:12;;;;;;;21.42;7.85;;;4.60;99.90;;;;;;5060525;28;20129;-63
2020/12/14 08:56:39;;;;;;;21.60;7.75;;;4.70;99.90;;;;;;5062122;28;20443;-63
2020/12/14 08:59:15;;;;;;;21.98;7.68;;;4.70;99.90;;;;;;5065075;28;20781;-63
2020/12/14 09:02:06;;;;;;;21.73;7.00;;;4.70;99.90;;;;;;5064026;28;20048;-63
2020/12/14 09:04:40;;;;;;;25.15;9.23;;;4.70;99.90;;;;;;5059301;28;20052;-62
2020/12/14 09:07:27;;;;;;;22.67;8.00;;;4.70;99.90;;;;;;5059842;28;20633;-63
2020/12/14 09:10:00;;;;;;;21.88;8.20;;;4.70;99.90;;;;;;5061485;28;20045;-63
2020/12/14 09:12:27;;;;;;;20.10;8.00;;;4.70;99.90;;;;;;5051093;28;20045;-63
2020/12/14 09:15:05;;;;;;;19.02;7.15;;;4.80;99.90;;;;;;5063133;28;20048;-62
2020/12/14 09:17:37;;;;;;;20.80;7.78;;;4.80;99.90;;;;;;5061298;28;20407;-62
2020/12/14 09:20:20;;;;;;;18.90;8.23;;;4.80;99.90;;;;;;5064900;28;20149;-62
2020/12/14 09:22:54;;;;;;;18.00;7.53;;;4.80;99.90;;;;;;5057578;28;20056;-62
2020/12/14 09:25:20;;;;;;;20.65;8.88;;;4.90;99.90;;;;;;5066395;28;20620;-62
2020/12/14 09:27:53;;;;;;;28.83;10.07;;;4.90;99.90;;;;;;5066298;28;20084;-62
2020/12/14 09:30:27;;;;;;;24.08;7.75;;;4.90;99.90;;;;;;5067597;28;20106;-62
2020/12/14 09:32:53;;;;;;;22.50;8.45;;;4.90;99.90;;;;;;5061835;28;20049;-62
2020/12/14 09:35:20;;;;;;;23.27;8.77;;;4.80;99.90;;;;;;5051225;28;20044;-62
2020/12/14 09:37:53;;;;;;;18.83;7.63;;;4.90;99.90;;;;;;5067489;28;20071;-62
2020/12/14 09:40:26;;;;;;;21.30;7.60;;;4.80;99.90;;;;;;5060670;28;20036;-62
2020/12/14 09:42:53;;;;;;;25.83;9.95;;;4.70;99.90;;;;;;5069721;28;20064;-62
2020/12/14 09:45:19;;;;;;;24.20;7.95;;;4.70;99.90;;;;;;5064867;28;20117;-62
2020/12/14 09:47:48;;;;;;;26.30;9.55;;;4.70;99.90;;;;;;5061747;28;20523;-62
2020/12/14 09:50:15;;;;;;;24.13;8.77;;;4.60;99.90;;;;;;5068384;28;20060;-62
2020/12/14 09:52:42;;;;;;;29.67;10.52;;;4.70;99.90;;;;;;5061846;28;20409;-63
2020/12/14 09:55:08;;;;;;;19.42;7.90;;;4.80;99.90;;;;;;5062498;28;20064;-63
2020/12/14 09:57:42;;;;;;;15.77;7.22;;;4.80;99.90;;;;;;5066231;28;20500;-62
2020/12/14 10:00:21;;;;;;;17.80;7.95;;;4.80;99.90;;;;;;5067991;28;20064;-62
2020/12/14 10:03:04;;;;;;;22.38;9.02;;;4.80;99.90;;;;;;5062311;28;20110;-62
2020/12/14 10:05:35;;;;;;;19.85;8.35;;;4.90;99.90;;;;;;5059804;28;20037;-63
2020/12/14 10:08:02;;;;;;;20.67;8.60;;;4.80;99.90;;;;;;5060397;28;20058;-63
2020/12/14 10:10:28;;;;;;;19.45;8.15;;;4.80;99.90;;;;;;5059623;28;20067;-62
2020/12/14 10:12:59;;;;;;;22.38;7.78;;;4.90;99.90;;;;;;5063390;28;20086;-63
2020/12/14 10:15:33;;;;;;;21.25;8.98;;;4.90;99.90;;;;;;5067694;28;20789;-63
2020/12/14 10:18:06;;;;;;;20.92;8.80;;;4.90;99.90;;;;;;5063944;28;20132;-62
2020/12/14 10:20:32;;;;;;;23.02;7.75;;;4.90;99.90;;;;;;5060963;28;20052;-62
2020/12/14 10:22:59;;;;;;;22.60;8.52;;;4.90;99.90;;;;;;5068444;28;20048;-62
2020/12/14 10:25:25;;;;;;;23.17;9.13;;;4.90;99.90;;;;;;5064330;28;20403;-62
2020/12/14 10:27:53;;;;;;;30.50;10.05;;;4.90;99.90;;;;;;5064643;28;20467;-62
2020/12/14 10:30:19;;;;;;;29.52;10.20;;;5.00;99.90;;;;;;5063629;28;20071;-62
2020/12/14 10:32:46;;;;;;;27.67;10.77;;;5.00;99.90;;;;;;5066742;28;20049;-63
2020/12/14 10:35:17;;;;;;;27.10;9.90;;;5.00;99.90;;;;;;5059434;28;20053;-63
2020/12/14 10:37:44;;;;;;;24.08;9.18;;;5.00;99.90;;;;;;5058859;28;20522;-63
2020/12/14 10:40:10;;;;;;;26.02;10.00;;;5.00;99.90;;;;;;5064508;28;20056;-63
2020/12/14 10:42:44;;;;;;;24.13;9.77;;;5.00;99.90;;;;;;5057010;28;20365;-63
2020/12/14 10:45:18;;;;;;;31.38;12.35;;;5.00;99.90;;;;;;5064554;28;20059;-63
2020/12/14 10:47:45;;;;;;;22.70;8.32;;;5.00;99.90;;;;;;5066068;28;20048;-63
2020/12/14 10:50:18;;;;;;;21.50;7.88;;;5.00;99.90;;;;;;5066000;28;20043;-62
2020/12/14 10:52:44;;;;;;;20.17;7.68;;;5.00;99.90;;;;;;5057573;28;20067;-63
2020/12/14 10:55:11;;;;;;;21.25;7.65;;;4.90;99.90;;;;;;5065304;28;20101;-62
2020/12/14 10:57:39;;;;;;;22.30;7.90;;;4.90;99.90;;;;;;5050497;28;20045;-62
2020/12/14 11:00:07;;;;;;;20.23;7.60;;;4.90;99.90;;;;;;5065143;28;20059;-63
2020/12/14 11:02:41;;;;;;;21.23;8.77;;;4.90;99.90;;;;;;5060313;28;20056;-62
2020/12/14 11:05:09;;;;;;;27.10;9.27;;;4.90;99.90;;;;;;5063827;28;20132;-63
2020/12/14 11:07:43;;;;;;;22.15;8.82;;;4.90;99.90;;;;;;5052285;28;20522;-63
2020/12/14 11:10:10;;;;;;;22.65;6.95;;;5.00;99.90;;;;;;5062547;28;20055;-63
2020/12/14 11:12:38;;;;;;;24.45;8.32;;;5.00;99.90;;;;;;5057686;28;20047;-62
2020/12/14 11:15:09;;;;;;;23.90;9.40;;;4.90;99.90;;;;;;5060641;28;20106;-63
2020/12/14 11:17:37;;;;;;;23.38;8.60;;;4.90;99.90;;;;;;5060201;28;20052;-63
2020/12/14 11:20:05;;;;;;;22.33;9.50;;;4.90;99.90;;;;;;5056390;28;20048;-62
2020/12/14 11:22:31;;;;;;;23.15;9.48;;;4.90;99.90;;;;;;5058961;28;20054;-62
2020/12/14 11:24:58;;;;;;;23.98;9.48;;;4.90;99.90;;;;;;5064679;28;20082;-62
2020/12/14 11:27:31;;;;;;;25.63;9.85;;;4.90;99.90;;;;;;5062815;28;20048;-63
2020/12/14 11:30:11;;;;;;;24.25;7.75;;;4.80;99.90;;;;;;5063314;28;20578;-62
2020/12/14 11:32:43;;;;;;;20.80;7.15;;;4.90;99.90;;;;;;5051023;28;20122;-62
2020/12/14 11:35:10;;;;;;;16.30;6.50;;;4.90;99.90;;;;;;5060208;28;20087;-62
2020/12/14 11:37:37;;;;;;;23.00;8.05;;;5.00;99.90;;;;;;5052833;28;20412;-62
2020/12/14 11:40:07;;;;;;;20.50;7.13;;;5.00;99.90;;;;;;5062617;28;20044;-61
2020/12/14 11:42:41;;;;;;;19.48;7.10;;;5.00;99.90;;;;;;5058480;28;20044;-61
2020/12/14 11:45:14;;;;;;;21.33;7.68;;;5.00;99.90;;;;;;5072443;28;20745;-61
2020/12/14 11:47:40;;;;;;;25.63;8.77;;;5.00;99.90;;;;;;5034568;28;20526;-61
2020/12/14 11:50:07;;;;;;;21.63;9.52;;;4.90;99.90;;;;;;5062061;28;20055;-61
2020/12/14 11:52:34;;;;;;;22.02;8.27;;;5.00;99.90;;;;;;5059797;28;20056;-61
2020/12/14 11:55:00;;;;;;;27.08;9.77;;;4.90;99.90;;;;;;5068006;28;20068;-62
2020/12/14 11:57:27;;;;;;;27.85;10.27;;;4.90;99.90;;;;;;5058488;28;20123;-62
2020/12/14 12:00:00;;;;;;;25.10;9.52;;;4.90;99.90;;;;;;5071477;28;20107;-61
2020/12/14 12:02:30;;;;;;;33.45;12.13;;;4.90;99.90;;;;;;5067382;28;20076;-61
2020/12/14 12:04:56;;;;;;;22.45;7.75;;;5.00;99.90;;;;;;5061692;28;20049;-62
2020/12/14 12:07:23;;;;;;;19.88;6.57;;;4.90;99.90;;;;;;5068091;28;20045;-62
2020/12/14 12:09:49;;;;;;;21.27;7.05;;;4.90;99.90;;;;;;5061129;28;20567;-64
2020/12/14 12:12:16;;;;;;;20.38;8.02;;;4.80;99.90;;;;;;5056116;28;20078;-63
2020/12/14 12:14:42;;;;;;;22.58;8.85;;;4.80;99.90;;;;;;5049973;28;20048;-62
2020/12/14 12:17:09;;;;;;;21.08;8.20;;;4.80;99.90;;;;;;5059434;28;20044;-62
2020/12/14 12:19:36;;;;;;;18.10;7.22;;;4.80;99.90;;;;;;5063400;28;20106;-62
2020/12/14 12:22:02;;;;;;;23.25;9.43;;;4.80;99.90;;;;;;5061341;28;20049;-62
2020/12/14 12:24:35;;;;;;;18.15;7.07;;;4.80;99.90;;;;;;5061970;28;20057;-62
2020/12/14 12:27:09;;;;;;;33.42;11.85;;;4.80;99.90;;;;;;5057532;28;20073;-61
2020/12/14 12:29:35;;;;;;;27.70;9.23;;;4.80;99.90;;;;;;5062866;28;20707;-61
2020/12/14 12:32:02;;;;;;;29.75;11.05;;;4.80;99.90;;;;;;5063943;28;20040;-62
2020/12/14 12:34:31;;;;;;;29.10;10.75;;;4.80;99.90;;;;;;5053550;28;20055;-62
2020/12/14 12:36:59;;;;;;;23.33;9.10;;;4.80;99.90;;;;;;5065436;28;20056;-62
2020/12/14 12:39:26;;;;;;;26.73;8.73;;;4.70;99.90;;;;;;5055599;28;20063;-62
2020/12/14 12:41:54;;;;;;;24.27;8.77;;;4.80;99.90;;;;;;5053617;28;20049;-63
2020/12/14 12:44:21;;;;;;;29.55;11.50;;;4.80;99.90;;;;;;5058063;28;20487;-62
2020/12/14 12:46:48;;;;;;;42.28;15.85;;;4.80;99.90;;;;;;5056689;28;20043;-62
2020/12/14 12:49:15;;;;;;;29.10;10.93;;;4.70;99.90;;;;;;5066926;28;20060;-62
2020/12/14 12:51:54;;;;;;;25.15;9.48;;;4.60;99.90;;;;;;5070077;28;20041;-62
2020/12/14 12:54:34;;;;;;;31.07;10.50;;;4.60;99.90;;;;;;5068013;28;20496;-62
2020/12/14 12:57:05;;;;;;;28.05;10.02;;;4.60;99.90;;;;;;5057687;28;20293;-62